Time;durP1;ratioP1;P1;durP2;ratioP2;P2;SDS_P1;SDS_P2;PMS_P1;PMS_P2;Temp;Humidity;BMP_temperature;BMP_pressure;BME280_temperature;BME280_humidity;BME280_pressure;Samples;Min_cycle;Max_cycle;Signal;HPM_P1;HPM_P2
2022/11/25 00:01:32;;;;;;;5.45;3.20;;;;;;;;;;10641887;27;20030;-74
2022/11/25 00:06:34;;;;;;;4.93;2.83;;;;;;;;;;10656910;27;20023;-74
2022/11/25 00:11:35;;;;;;;6.40;2.90;;;;;;;;;;10623829;27;20014;-73
2022/11/25 00:16:35;;;;;;;5.28;2.97;;;;;;;;;;10626623;27;20057;-72
2022/11/25 00:21:35;;;;;;;4.38;2.75;;;;;;;;;;10635166;27;20647;-78
2022/11/25 00:26:36;;;;;;;4.18;2.47;;;;;;;;;;10644683;27;20141;-73
2022/11/25 00:31:37;;;;;;;4.72;2.63;;;;;;;;;;10665352;27;20015;-73
2022/11/25 00:36:37;;;;;;;3.60;2.97;;;;;;;;;;10646255;27;20079;-73
2022/11/25 00:46:56;;;;;;;4.88;3.97;;;;;;;;;;10664935;27;20027;-75
2022/11/25 00:51:57;;;;;;;4.95;3.55;;;;;;;;;;10645848;27;20018;-72
2022/11/25 00:56:57;;;;;;;6.28;4.55;;;;;;;;;;10645329;27;20035;-73
2022/11/25 01:01:58;;;;;;;6.80;4.20;;;;;;;;;;10664066;27;20018;-74
2022/11/25 01:06:59;;;;;;;6.65;4.05;;;;;;;;;;10664317;27;20034;-73
2022/11/25 01:11:59;;;;;;;6.32;3.78;;;;;;;;;;10644881;27;20026;-75
2022/11/25 01:17:00;;;;;;;5.55;3.85;;;;;;;;;;10645283;27;20019;-74
2022/11/25 01:22:00;;;;;;;5.88;3.92;;;;;;;;;;10663205;27;20057;-75
2022/11/25 01:27:00;;;;;;;4.15;3.30;;;;;;;;;;10643977;27;20015;-75
2022/11/25 01:32:01;;;;;;;5.88;3.25;;;;;;;;;;10609541;27;20023;-74
2022/11/25 01:37:02;;;;;;;4.82;3.47;;;;;;;;;;10623824;27;20023;-74
2022/11/25 01:42:02;;;;;;;5.38;3.42;;;;;;;;;;10646833;27;20029;-74
2022/11/25 01:47:14;;;;;;;6.20;3.22;;;;;;;;;;10650886;27;20026;-75
2022/11/25 01:52:17;;;;;;;7.32;2.50;;;;;;;;;;10614342;27;20047;-77
2022/11/25 01:57:26;;;;;;;5.97;2.63;;;;;;;;;;10576786;28;20153;-75
2022/11/25 02:02:29;;;;;;;3.83;2.55;;;;;;;;;;10616681;27;20053;-74
2022/11/25 02:07:36;;;;;;;6.43;3.20;;;;;;;;;;10643453;27;20557;-73
2022/11/25 02:12:39;;;;;;;5.33;3.00;;;;;;;;;;10643096;27;20499;-74
2022/11/25 02:17:40;;;;;;;3.10;2.50;;;;;;;;;;10625910;27;20708;-77
2022/11/25 02:22:40;;;;;;;7.20;2.80;;;;;;;;;;10643019;27;20047;-77
2022/11/25 02:27:42;;;;;;;2.90;2.17;;;;;;;;;;10660568;27;20029;-73
2022/11/25 02:32:46;;;;;;;3.72;2.55;;;;;;;;;;10660065;27;20026;-74
2022/11/25 02:37:46;;;;;;;2.75;2.08;;;;;;;;;;10641199;27;20033;-78
2022/11/25 02:42:49;;;;;;;2.45;2.20;;;;;;;;;;10642250;27;20501;-74
2022/11/25 02:47:50;;;;;;;5.43;1.95;;;;;;;;;;10641374;27;20026;-74
2022/11/25 02:52:50;;;;;;;3.40;1.90;;;;;;;;;;10630899;27;20023;-74
2022/11/25 02:57:50;;;;;;;3.63;2.53;;;;;;;;;;10641323;27;20488;-76
2022/11/25 03:02:52;;;;;;;3.45;2.20;;;;;;;;;;10658109;27;20593;-73
2022/11/25 03:07:52;;;;;;;6.05;2.42;;;;;;;;;;10659047;27;20401;-74
2022/11/25 03:12:53;;;;;;;4.00;2.50;;;;;;;;;;10640689;27;20033;-74
2022/11/25 03:17:53;;;;;;;3.38;2.25;;;;;;;;;;10640011;27;20018;-73
2022/11/25 03:22:53;;;;;;;5.43;2.60;;;;;;;;;;10614351;27;20127;-74
2022/11/25 03:27:54;;;;;;;3.85;2.35;;;;;;;;;;10622272;27;20071;-71
2022/11/25 03:32:55;;;;;;;4.43;3.05;;;;;;;;;;10643844;27;20046;-71
2022/11/25 03:37:56;;;;;;;5.05;3.25;;;;;;;;;;10633337;27;20031;-73
2022/11/25 03:42:56;;;;;;;5.90;3.17;;;;;;;;;;10616972;27;20080;-78
2022/11/25 03:47:57;;;;;;;4.00;3.17;;;;;;;;;;10610494;27;20543;-74
2022/11/25 03:52:57;;;;;;;4.90;3.03;;;;;;;;;;10561406;27;20046;-74
2022/11/25 03:57:57;;;;;;;5.72;3.30;;;;;;;;;;10613058;27;20023;-73
2022/11/25 04:02:57;;;;;;;5.13;3.13;;;;;;;;;;10613710;27;20094;-74
2022/11/25 04:07:58;;;;;;;7.60;3.35;;;;;;;;;;10614010;28;20112;-80
2022/11/25 04:12:58;;;;;;;6.57;3.58;;;;;;;;;;10615436;28;20016;-74
2022/11/25 04:17:58;;;;;;;4.30;3.13;;;;;;;;;;10613551;28;20015;-73
2022/11/25 04:22:58;;;;;;;4.32;2.65;;;;;;;;;;10650413;27;20074;-73
2022/11/25 04:27:59;;;;;;;3.47;2.55;;;;;;;;;;10637451;27;20067;-73
2022/11/25 04:32:59;;;;;;;3.70;2.33;;;;;;;;;;10588336;27;20068;-74
2022/11/25 04:37:59;;;;;;;3.15;2.45;;;;;;;;;;10550413;28;20028;-74
2022/11/25 04:43:00;;;;;;;3.55;3.00;;;;;;;;;;10597931;28;20031;-73
2022/11/25 04:48:00;;;;;;;3.42;3.00;;;;;;;;;;10581693;27;20018;-73
2022/11/25 04:53:02;;;;;;;6.32;3.25;;;;;;;;;;10586872;28;20532;-81
2022/11/25 04:58:02;;;;;;;2.88;2.65;;;;;;;;;;10581769;28;20453;-78
2022/11/25 05:03:02;;;;;;;4.22;2.70;;;;;;;;;;10631499;27;20018;-82
2022/11/25 05:08:10;;;;;;;4.70;3.78;;;;;;;;;;10640469;27;20019;-83
2022/11/25 05:13:10;;;;;;;2.90;2.60;;;;;;;;;;10645710;27;20026;-73
2022/11/25 05:18:10;;;;;;;5.25;3.25;;;;;;;;;;10600555;27;20401;-72
2022/11/25 05:23:11;;;;;;;2.95;2.40;;;;;;;;;;10642691;27;20514;-74
2022/11/25 05:28:11;;;;;;;2.45;2.22;;;;;;;;;;10586317;27;20394;-81
2022/11/25 05:33:12;;;;;;;3.90;2.67;;;;;;;;;;10580059;27;20478;-80
2022/11/25 05:38:12;;;;;;;6.78;2.50;;;;;;;;;;10593100;27;20062;-76
2022/11/25 05:43:13;;;;;;;6.30;2.53;;;;;;;;;;10619269;27;20514;-76
2022/11/25 05:48:13;;;;;;;3.60;1.90;;;;;;;;;;10584732;27;20019;-77
2022/11/25 05:53:16;;;;;;;5.47;2.33;;;;;;;;;;10604551;27;20026;-78
2022/11/25 05:58:16;;;;;;;3.83;2.20;;;;;;;;;;10636102;27;20075;-77
2022/11/25 06:03:16;;;;;;;3.85;2.78;;;;;;;;;;10612757;27;20023;-78
2022/11/25 06:08:18;;;;;;;4.23;3.10;;;;;;;;;;10600874;27;20026;-79
2022/11/25 06:13:18;;;;;;;4.97;2.92;;;;;;;;;;10579334;27;20023;-75
2022/11/25 06:18:20;;;;;;;8.00;3.55;;;;;;;;;;10586217;27;20030;-77
2022/11/25 06:23:20;;;;;;;3.45;2.60;;;;;;;;;;10603128;27;20038;-77
2022/11/25 06:28:20;;;;;;;5.15;3.30;;;;;;;;;;10644382;27;20023;-75
2022/11/25 06:33:21;;;;;;;4.80;3.38;;;;;;;;;;10641451;27;20026;-78
2022/11/25 06:38:21;;;;;;;4.00;2.60;;;;;;;;;;10641491;27;20026;-78
2022/11/25 06:43:21;;;;;;;3.70;2.50;;;;;;;;;;10641676;27;20023;-77
2022/11/25 06:48:21;;;;;;;5.72;3.88;;;;;;;;;;10642478;27;20011;-80
2022/11/25 06:53:22;;;;;;;5.43;4.13;;;;;;;;;;10615066;27;20453;-76
2022/11/25 06:58:22;;;;;;;9.07;3.50;;;;;;;;;;10583801;27;20027;-78
2022/11/25 07:03:23;;;;;;;4.43;2.90;;;;;;;;;;10654736;27;20284;-74
2022/11/25 07:08:25;;;;;;;5.45;3.20;;;;;;;;;;10667191;27;20054;-71
2022/11/25 07:13:26;;;;;;;6.05;3.67;;;;;;;;;;10659048;27;20018;-79
2022/11/25 07:18:27;;;;;;;5.30;3.83;;;;;;;;;;10642797;27;20018;-76
2022/11/25 07:23:28;;;;;;;4.43;3.10;;;;;;;;;;10640724;27;20043;-79
2022/11/25 07:28:28;;;;;;;11.30;4.37;;;;;;;;;;10627039;27;20114;-80
2022/11/25 07:33:28;;;;;;;16.03;4.63;;;;;;;;;;10623494;27;20178;-77
2022/11/25 07:38:28;;;;;;;5.55;3.92;;;;;;;;;;10639914;27;20262;-76
2022/11/25 07:43:29;;;;;;;5.68;3.47;;;;;;;;;;10642082;27;20019;-72
2022/11/25 07:48:30;;;;;;;6.18;3.30;;;;;;;;;;10642495;27;20026;-74
2022/11/25 07:53:30;;;;;;;6.35;3.90;;;;;;;;;;10640507;27;20026;-78
2022/11/25 07:58:31;;;;;;;5.43;3.70;;;;;;;;;;10657663;27;20015;-76
2022/11/25 08:03:32;;;;;;;8.93;4.10;;;;;;;;;;10639521;27;20545;-77
2022/11/25 08:08:33;;;;;;;6.10;3.63;;;;;;;;;;10658140;27;20018;-78
2022/11/25 08:13:34;;;;;;;9.15;4.05;;;;;;;;;;10639114;27;20019;-79
2022/11/25 08:18:34;;;;;;;5.93;3.08;;;;;;;;;;10592648;27;20345;-84
2022/11/25 08:23:35;;;;;;;5.07;3.45;;;;;;;;;;10585205;27;20043;-79
2022/11/25 08:28:36;;;;;;;5.43;2.70;;;;;;;;;;10638916;27;20019;-77
2022/11/25 08:33:37;;;;;;;8.07;3.17;;;;;;;;;;10656639;27;20022;-79
2022/11/25 08:38:37;;;;;;;4.93;3.50;;;;;;;;;;10638654;27;20497;-77
2022/11/25 08:43:38;;;;;;;5.60;3.40;;;;;;;;;;10653501;27;20026;-80
2022/11/25 08:48:42;;;;;;;8.45;3.40;;;;;;;;;;10586979;27;20014;-77
2022/11/25 08:53:42;;;;;;;9.77;3.95;;;;;;;;;;10656316;27;20031;-74
2022/11/25 08:58:44;;;;;;;6.38;3.65;;;;;;;;;;10656048;27;20019;-72
2022/11/25 09:03:47;;;;;;;5.00;3.08;;;;;;;;;;10581728;28;20474;-76
2022/11/25 09:08:48;;;;;;;4.80;3.22;;;;;;;;;;10613317;27;20470;-79
2022/11/25 09:13:48;;;;;;;7.72;3.15;;;;;;;;;;10684204;27;20021;-79
2022/11/25 09:18:49;;;;;;;4.37;3.00;;;;;;;;;;10584818;27;20015;-76
2022/11/25 09:23:50;;;;;;;5.05;3.63;;;;;;;;;;10598823;27;20081;-81
2022/11/25 09:28:50;;;;;;;19.52;5.00;;;;;;;;;;10598857;27;20026;-78
2022/11/25 09:33:50;;;;;;;4.23;3.30;;;;;;;;;;10618371;27;20023;-76
2022/11/25 09:38:51;;;;;;;6.47;4.05;;;;;;;;;;10601064;27;20015;-83
2022/11/25 09:49:23;;;;;;;8.50;3.10;;;;;;;;;;10594337;27;20106;-74
2022/11/25 09:54:31;;;;;;;5.60;3.65;;;;;;;;;;10595562;27;20076;-79
2022/11/25 09:59:52;;;;;;;4.47;2.67;;;;;;;;;;10611774;27;20022;-80
2022/11/25 10:05:12;;;;;;;7.45;2.88;;;;;;;;;;10594260;27;20015;-74
2022/11/25 10:10:34;;;;;;;5.10;2.67;;;;;;;;;;10582639;27;20158;-79
2022/11/25 10:15:38;;;;;;;3.85;2.22;;;;;;;;;;10584447;27;20509;-76
2022/11/25 10:20:39;;;;;;;4.32;2.35;;;;;;;;;;10584243;27;20074;-77
2022/11/25 10:26:00;;;;;;;6.75;2.70;;;;;;;;;;10617781;27;20034;-81
2022/11/25 10:31:12;;;;;;;3.78;2.22;;;;;;;;;;10635452;27;20046;-79
2022/11/25 10:36:13;;;;;;;4.45;2.70;;;;;;;;;;10630828;27;20019;-71
2022/11/25 10:41:16;;;;;;;3.55;2.20;;;;;;;;;;10616620;27;20016;-72
2022/11/25 10:46:19;;;;;;;2.72;2.03;;;;;;;;;;10645717;27;20117;-71
2022/11/25 10:51:32;;;;;;;5.03;2.50;;;;;;;;;;10649528;27;20466;-71
2022/11/25 10:56:56;;;;;;;3.05;1.88;;;;;;;;;;10630017;27;20067;-71
2022/11/25 11:02:15;;;;;;;5.65;2.00;;;;;;;;;;10640488;27;20053;-72
2022/11/25 11:07:20;;;;;;;4.70;2.25;;;;;;;;;;10623139;27;20460;-71
2022/11/25 11:12:24;;;;;;;4.75;1.65;;;;;;;;;;10662568;27;20022;-76
2022/11/25 11:17:38;;;;;;;5.97;2.53;;;;;;;;;;10616042;27;20007;-73
2022/11/25 11:22:57;;;;;;;5.00;2.47;;;;;;;;;;10594932;28;20048;-70
2022/11/25 11:27:58;;;;;;;5.82;2.80;;;;;;;;;;10634065;27;20031;-72
2022/11/25 11:33:03;;;;;;;5.75;2.63;;;;;;;;;;10617776;27;20118;-73
2022/11/25 11:38:20;;;;;;;8.05;3.20;;;;;;;;;;10631909;27;20098;-71
2022/11/25 11:43:30;;;;;;;3.97;2.72;;;;;;;;;;10606982;27;20035;-72
2022/11/25 11:48:49;;;;;;;3.58;3.05;;;;;;;;;;10631013;27;20030;-77
2022/11/25 11:54:09;;;;;;;8.88;2.90;;;;;;;;;;10625586;27;20458;-82
2022/11/25 11:59:28;;;;;;;6.65;3.30;;;;;;;;;;10631983;27;20031;-74
2022/11/25 12:04:44;;;;;;;6.40;3.17;;;;;;;;;;10584354;28;20058;-83
2022/11/25 12:09:57;;;;;;;10.63;3.70;;;;;;;;;;10565251;28;20042;-72
2022/11/25 12:15:03;;;;;;;7.90;3.13;;;;;;;;;;10600211;28;20061;-79
2022/11/25 12:20:15;;;;;;;4.97;3.20;;;;;;;;;;10619179;27;20047;-76
2022/11/25 12:25:18;;;;;;;6.45;4.13;;;;;;;;;;10653657;27;20038;-79
2022/11/25 12:30:21;;;;;;;11.48;4.75;;;;;;;;;;10672639;27;20019;-83
2022/11/25 12:35:30;;;;;;;6.18;3.33;;;;;;;;;;10660922;27;20027;-77
2022/11/25 12:41:09;;;;;;;8.38;4.93;;;;;;;;;;10633740;27;20034;-72
2022/11/25 12:46:21;;;;;;;6.47;3.80;;;;;;;;;;10518867;28;20031;-75
2022/11/25 12:51:53;;;;;;;9.07;4.25;;;;;;;;;;10471708;28;20028;-72
2022/11/25 12:57:12;;;;;;;8.18;5.35;;;;;;;;;;10336165;28;20033;-72
2022/11/25 13:02:31;;;;;;;5.63;3.63;;;;;;;;;;10513850;27;20494;-71
2022/11/25 13:07:41;;;;;;;6.22;4.38;;;;;;;;;;10639765;27;20043;-82
2022/11/25 13:12:52;;;;;;;5.75;3.60;;;;;;;;;;10658019;27;20420;-84
2022/11/25 13:17:57;;;;;;;6.45;3.78;;;;;;;;;;10588945;27;20033;-75
2022/11/25 13:23:04;;;;;;;6.47;3.70;;;;;;;;;;10645884;27;20054;-72
2022/11/25 13:28:26;;;;;;;6.90;3.80;;;;;;;;;;10668033;27;20080;-79
2022/11/25 13:33:28;;;;;;;7.88;4.15;;;;;;;;;;10652604;27;20122;-82
2022/11/25 13:38:28;;;;;;;5.55;4.18;;;;;;;;;;10656118;27;20101;-79
2022/11/25 13:43:30;;;;;;;6.65;4.05;;;;;;;;;;10652567;27;20072;-77
2022/11/25 13:48:35;;;;;;;7.03;4.57;;;;;;;;;;10659064;27;20035;-80
2022/11/25 13:53:37;;;;;;;7.53;5.40;;;;;;;;;;10630893;27;20011;-82
2022/11/25 13:58:37;;;;;;;9.90;5.10;;;;;;;;;;10651061;27;20030;-75
2022/11/25 14:03:52;;;;;;;9.82;5.32;;;;;;;;;;10673796;27;20030;-79
2022/11/25 14:09:03;;;;;;;11.63;5.93;;;;;;;;;;10666928;27;20024;-81
2022/11/25 14:14:26;;;;;;;8.68;4.57;;;;;;;;;;10614212;27;20018;-80
2022/11/25 14:19:29;;;;;;;9.13;4.82;;;;;;;;;;10664422;27;20023;-73
2022/11/25 14:24:49;;;;;;;9.20;5.32;;;;;;;;;;10625682;27;20035;-82
2022/11/25 14:30:02;;;;;;;13.35;6.28;;;;;;;;;;10661205;27;20046;-80
2022/11/25 14:35:07;;;;;;;7.43;4.75;;;;;;;;;;10636520;27;20027;-71
2022/11/25 14:40:17;;;;;;;9.45;5.80;;;;;;;;;;10669586;27;20026;-73
2022/11/25 14:45:37;;;;;;;14.77;6.03;;;;;;;;;;10624240;27;20447;-75
2022/11/25 14:50:39;;;;;;;11.32;6.63;;;;;;;;;;10637874;27;20050;-78
2022/11/25 14:55:39;;;;;;;11.25;6.13;;;;;;;;;;10628038;27;20028;-77
2022/11/25 15:00:50;;;;;;;11.48;6.65;;;;;;;;;;10660662;27;20022;-83
2022/11/25 15:05:56;;;;;;;9.57;5.95;;;;;;;;;;10607440;27;20114;-83
2022/11/25 15:10:59;;;;;;;11.23;5.72;;;;;;;;;;10642144;27;20022;-83
2022/11/25 15:16:08;;;;;;;19.00;6.57;;;;;;;;;;10631662;27;20026;-81
2022/11/25 15:21:14;;;;;;;13.15;7.20;;;;;;;;;;10619522;27;20047;-83
2022/11/25 15:26:21;;;;;;;11.98;6.32;;;;;;;;;;10605186;27;20082;-82
2022/11/25 15:31:36;;;;;;;14.48;6.03;;;;;;;;;;10624212;27;20019;-77
2022/11/25 15:36:41;;;;;;;9.45;4.82;;;;;;;;;;10655587;27;20132;-84
2022/11/25 15:42:01;;;;;;;11.45;5.50;;;;;;;;;;10625011;27;20026;-76
2022/11/25 15:47:05;;;;;;;9.57;5.25;;;;;;;;;;10637824;27;20031;-85
2022/11/25 15:52:19;;;;;;;8.48;4.90;;;;;;;;;;10592710;27;20024;-84
2022/11/25 15:57:30;;;;;;;9.77;4.78;;;;;;;;;;10625968;27;20033;-78
2022/11/25 16:02:41;;;;;;;7.70;5.03;;;;;;;;;;10616283;27;20023;-73
2022/11/25 16:07:50;;;;;;;8.25;4.55;;;;;;;;;;10669205;27;20019;-79
2022/11/25 16:13:12;;;;;;;11.98;4.43;;;;;;;;;;10633186;27;20019;-78
2022/11/25 16:18:13;;;;;;;9.05;4.38;;;;;;;;;;10587748;28;20048;-84
2022/11/25 16:23:18;;;;;;;7.40;4.20;;;;;;;;;;10561752;28;20043;-81
2022/11/25 16:28:22;;;;;;;6.97;3.65;;;;;;;;;;10597407;28;20560;-73
2022/11/25 16:33:23;;;;;;;12.45;3.53;;;;;;;;;;10614573;28;20027;-72
2022/11/25 16:38:25;;;;;;;8.10;3.00;;;;;;;;;;10619396;28;20116;-76
2022/11/25 16:43:27;;;;;;;7.22;3.80;;;;;;;;;;10563434;28;20039;-78
2022/11/25 16:48:32;;;;;;;7.53;3.45;;;;;;;;;;10599006;28;20534;-79
2022/11/25 16:53:34;;;;;;;6.53;3.50;;;;;;;;;;10602151;28;20023;-79
2022/11/25 16:58:44;;;;;;;8.82;3.80;;;;;;;;;;10589131;28;20409;-82
2022/11/25 17:03:46;;;;;;;10.43;4.53;;;;;;;;;;10579501;28;20026;-78
2022/11/25 17:08:46;;;;;;;10.30;4.57;;;;;;;;;;10588520;27;20023;-83
2022/11/25 17:13:49;;;;;;;7.22;3.85;;;;;;;;;;10584064;27;20031;-83
2022/11/25 17:18:55;;;;;;;7.38;3.92;;;;;;;;;;10584641;27;20027;-81
2022/11/25 17:23:59;;;;;;;7.50;4.10;;;;;;;;;;10589712;27;20047;-82
2022/11/25 17:29:02;;;;;;;6.38;3.63;;;;;;;;;;10583604;27;20029;-82
2022/11/25 17:34:03;;;;;;;10.48;3.20;;;;;;;;;;10605693;27;20418;-79
2022/11/25 17:39:03;;;;;;;9.90;4.15;;;;;;;;;;10599833;27;20030;-83
2022/11/25 17:44:06;;;;;;;7.70;4.30;;;;;;;;;;10611097;27;20118;-82
2022/11/25 17:49:12;;;;;;;6.85;4.22;;;;;;;;;;10593540;27;20022;-77
2022/11/25 17:54:14;;;;;;;8.80;4.13;;;;;;;;;;10602751;27;20016;-85
2022/11/25 17:59:28;;;;;;;6.30;3.78;;;;;;;;;;10581472;27;20110;-80
2022/11/25 18:04:38;;;;;;;6.63;4.10;;;;;;;;;;10605789;27;20460;-82
2022/11/25 18:09:40;;;;;;;8.63;4.20;;;;;;;;;;10562858;27;20023;-75
2022/11/25 18:14:41;;;;;;;8.15;4.18;;;;;;;;;;10585300;27;20052;-77
2022/11/25 18:19:42;;;;;;;8.23;4.55;;;;;;;;;;10599970;27;20129;-72
2022/11/25 18:24:42;;;;;;;7.67;3.73;;;;;;;;;;10583681;27;20047;-78
2022/11/25 18:29:43;;;;;;;5.80;4.00;;;;;;;;;;10580630;27;20031;-74
2022/11/25 18:34:43;;;;;;;8.40;4.13;;;;;;;;;;10573512;27;20490;-75
2022/11/25 18:39:46;;;;;;;6.40;3.97;;;;;;;;;;10559249;27;20495;-78
2022/11/25 18:44:47;;;;;;;6.57;3.90;;;;;;;;;;10568904;27;20073;-75
2022/11/25 18:49:47;;;;;;;7.18;4.25;;;;;;;;;;10561432;27;20672;-76
2022/11/25 18:54:48;;;;;;;9.05;4.20;;;;;;;;;;10568365;27;20510;-78
2022/11/25 18:59:49;;;;;;;6.93;4.05;;;;;;;;;;10569873;27;20031;-74
2022/11/25 19:04:50;;;;;;;6.15;3.35;;;;;;;;;;10564838;27;20027;-75
2022/11/25 19:09:50;;;;;;;8.15;4.80;;;;;;;;;;10580034;27;20494;-81
2022/11/25 19:14:52;;;;;;;6.90;4.00;;;;;;;;;;10572083;27;20042;-74
2022/11/25 19:19:52;;;;;;;6.55;3.95;;;;;;;;;;10578773;27;20486;-77
2022/11/25 19:24:53;;;;;;;8.13;4.68;;;;;;;;;;10563364;27;20130;-74
2022/11/25 19:29:53;;;;;;;10.50;5.27;;;;;;;;;;10567202;27;20027;-74
2022/11/25 19:34:58;;;;;;;10.07;4.17;;;;;;;;;;10567363;27;20027;-76
2022/11/25 19:39:59;;;;;;;7.40;3.95;;;;;;;;;;10578501;27;20261;-77
2022/11/25 19:44:59;;;;;;;8.88;4.13;;;;;;;;;;10588021;27;20032;-76
2022/11/25 19:50:00;;;;;;;7.72;4.20;;;;;;;;;;10591867;27;20038;-75
2022/11/25 19:55:01;;;;;;;7.40;4.63;;;;;;;;;;10574608;27;20034;-75
2022/11/25 20:00:01;;;;;;;9.10;4.93;;;;;;;;;;10578277;27;20084;-76
2022/11/25 20:05:02;;;;;;;9.07;4.90;;;;;;;;;;10580907;27;20032;-75
2022/11/25 20:10:21;;;;;;;10.68;5.18;;;;;;;;;;10601675;27;20375;-72
2022/11/25 20:15:21;;;;;;;8.48;4.32;;;;;;;;;;10603736;28;20516;-74
2022/11/25 20:20:32;;;;;;;7.95;4.60;;;;;;;;;;10610270;27;20094;-72
2022/11/25 20:25:42;;;;;;;10.90;5.68;;;;;;;;;;10598737;27;20399;-74
2022/11/25 20:30:43;;;;;;;15.68;7.18;;;;;;;;;;10565085;28;20024;-74
2022/11/25 20:35:45;;;;;;;8.88;4.90;;;;;;;;;;10569024;28;20628;-78
2022/11/25 20:40:48;;;;;;;7.90;4.78;;;;;;;;;;10589983;27;20027;-82
2022/11/25 20:45:49;;;;;;;8.80;5.13;;;;;;;;;;10591533;27;20023;-78
2022/11/25 20:50:52;;;;;;;8.55;5.18;;;;;;;;;;10589243;27;20022;-79
2022/11/25 20:55:52;;;;;;;9.98;4.15;;;;;;;;;;10585181;27;20034;-76
2022/11/25 21:00:53;;;;;;;7.82;4.53;;;;;;;;;;10577082;27;20049;-78
2022/11/25 21:05:54;;;;;;;7.80;4.95;;;;;;;;;;10588308;27;20035;-81
2022/11/25 21:10:56;;;;;;;9.77;4.85;;;;;;;;;;10585287;27;20023;-79
2022/11/25 21:15:56;;;;;;;8.15;5.20;;;;;;;;;;10587303;27;20498;-76
2022/11/25 21:20:57;;;;;;;28.08;11.27;;;;;;;;;;10573024;27;20076;-77
2022/11/25 21:26:01;;;;;;;7.88;4.50;;;;;;;;;;10586415;27;20031;-75
2022/11/25 21:31:01;;;;;;;8.55;4.95;;;;;;;;;;10606245;27;20012;-75
2022/11/25 21:36:02;;;;;;;9.00;4.82;;;;;;;;;;10615312;27;20022;-76
2022/11/25 21:41:03;;;;;;;7.88;4.85;;;;;;;;;;10586739;27;20043;-79
2022/11/25 21:46:06;;;;;;;12.32;4.85;;;;;;;;;;10577152;27;20027;-72
2022/11/25 21:51:08;;;;;;;10.27;5.38;;;;;;;;;;10610668;27;20011;-75
2022/11/25 21:56:15;;;;;;;15.85;5.50;;;;;;;;;;10615958;27;20080;-76
2022/11/25 22:01:16;;;;;;;6.83;5.07;;;;;;;;;;10614859;27;20027;-75
2022/11/25 22:06:18;;;;;;;9.65;5.72;;;;;;;;;;10604992;27;20035;-73
2022/11/25 22:11:20;;;;;;;12.48;5.72;;;;;;;;;;10594483;27;20015;-74
2022/11/25 22:16:24;;;;;;;12.27;5.68;;;;;;;;;;10591927;27;20031;-75
2022/11/25 22:21:25;;;;;;;10.50;5.22;;;;;;;;;;10618186;27;20034;-76
2022/11/25 22:26:32;;;;;;;11.27;6.10;;;;;;;;;;10660519;27;20031;-76
2022/11/25 22:31:33;;;;;;;7.90;5.25;;;;;;;;;;10641591;27;20101;-75
2022/11/25 22:36:38;;;;;;;9.35;5.35;;;;;;;;;;10641361;27;20019;-75
2022/11/25 22:41:39;;;;;;;11.40;6.32;;;;;;;;;;10659576;27;20387;-77
2022/11/25 22:46:39;;;;;;;10.00;5.63;;;;;;;;;;10614864;27;20023;-75
2022/11/25 22:51:40;;;;;;;10.52;5.95;;;;;;;;;;10580256;27;20078;-77
2022/11/25 22:56:40;;;;;;;9.80;5.50;;;;;;;;;;10659158;27;20023;-75
2022/11/25 23:01:41;;;;;;;10.20;5.53;;;;;;;;;;10623305;27;20605;-74
2022/11/25 23:06:41;;;;;;;12.38;5.07;;;;;;;;;;10639802;27;20553;-76
2022/11/25 23:11:41;;;;;;;8.23;5.38;;;;;;;;;;10616017;27;20018;-75
2022/11/25 23:16:42;;;;;;;13.98;7.38;;;;;;;;;;10622941;27;20021;-74
2022/11/25 23:21:43;;;;;;;10.30;5.43;;;;;;;;;;10640067;27;20497;-75
2022/11/25 23:26:43;;;;;;;14.68;5.32;;;;;;;;;;10619663;27;20023;-74
2022/11/25 23:31:45;;;;;;;8.50;5.18;;;;;;;;;;10573185;28;20069;-75
2022/11/25 23:36:46;;;;;;;8.43;5.05;;;;;;;;;;10640961;27;20505;-75
2022/11/25 23:41:47;;;;;;;11.30;4.88;;;;;;;;;;10640158;27;20504;-77
2022/11/25 23:46:48;;;;;;;14.52;6.70;;;;;;;;;;10638754;27;20548;-75
2022/11/25 23:51:48;;;;;;;13.02;6.75;;;;;;;;;;10594406;27;20023;-76
2022/11/25 23:56:49;;;;;;;14.88;6.68;;;;;;;;;;10561508;27;20027;-76
